Time;durP1;ratioP1;P1;durP2;ratioP2;P2;SDS_P1;SDS_P2;PMS_P1;PMS_P2;Temp;Humidity;BMP_temperature;BMP_pressure;BME280_temperature;BME280_humidity;BME280_pressure;Samples;Min_cycle;Max_cycle;Signal;HPM_P1;HPM_P2
2022/08/23 00:00:12;;;;;;;15.45;7.60;;;;;;;17.88;100.00;99276.00;4482232;31;35151;-80
2022/08/23 00:02:59;;;;;;;13.40;8.40;;;;;;;17.62;100.00;99285.00;4504463;31;34689;-81
2022/08/23 00:05:48;;;;;;;12.85;7.68;;;;;;;18.10;100.00;99283.53;4492220;31;35050;-80
2022/08/23 00:08:35;;;;;;;13.55;7.60;;;;;;;17.70;100.00;99278.41;4504464;31;34754;-81
2022/08/23 00:11:29;;;;;;;13.18;7.85;;;;;;;17.50;100.00;99272.91;4491985;31;35112;-81
2022/08/23 00:14:26;;;;;;;12.05;8.23;;;;;;;17.80;100.00;99269.53;4492325;31;34690;-80
2022/08/23 00:17:13;;;;;;;14.35;8.23;;;;;;;17.63;100.00;99264.44;4492155;31;34646;-80
2022/08/23 00:20:19;;;;;;;13.60;7.60;;;;;;;17.57;100.00;99271.44;4504374;31;34868;-81
2022/08/23 00:23:06;;;;;;;14.93;8.27;;;;;;;18.07;100.00;99267.63;4492408;31;35051;-81
2022/08/23 00:25:53;;;;;;;14.73;8.80;;;;;;;18.39;100.00;99265.38;4492021;31;34744;-81
2022/08/23 00:28:40;;;;;;;14.43;9.48;;;;;;;17.47;100.00;99259.78;4504189;31;34297;-80
2022/08/23 00:31:26;;;;;;;13.95;9.23;;;;;;;17.65;100.00;99257.38;4492337;31;34823;-81
2022/08/23 00:34:13;;;;;;;18.30;10.40;;;;;;;18.04;100.00;99270.34;4503974;31;35980;-80
2022/08/23 00:37:00;;;;;;;19.77;11.77;;;;;;;17.51;100.00;99266.19;4492427;31;35343;-80
2022/08/23 00:39:46;;;;;;;19.42;11.40;;;;;;;17.21;100.00;99270.72;4503559;31;34542;-81
2022/08/23 00:49:38;;;;;;;20.77;11.73;;;;;;;17.62;100.00;99274.72;4503989;31;35463;-80
2022/08/23 00:52:36;;;;;;;20.23;12.25;;;;;;;17.79;100.00;99284.56;4492035;31;34145;-80
2022/08/23 00:55:23;;;;;;;24.10;13.80;;;;;;;17.37;100.00;99288.06;4491843;31;34864;-79
2022/08/23 00:58:11;;;;;;;24.40;12.98;;;;;;;17.62;100.00;99291.34;4492116;31;35128;-81
2022/08/23 01:00:59;;;;;;;24.55;13.60;;;;;;;17.91;100.00;99291.91;4491908;31;34687;-80
2022/08/23 01:03:49;;;;;;;23.70;13.62;;;;;;;17.51;100.00;99291.13;4492099;31;34368;-80
2022/08/23 01:07:14;;;;;;;23.25;13.80;;;;;;;17.45;100.00;99292.59;4493241;31;35141;-81
2022/08/23 01:10:08;;;;;;;25.20;13.25;;;;;;;17.79;100.00;99295.66;4478517;31;35050;-81
2022/08/23 01:13:43;;;;;;;23.58;14.32;;;;;;;17.65;100.00;99292.59;4492875;31;34758;-81
2022/08/23 01:16:35;;;;;;;26.42;13.20;;;;;;;17.60;100.00;99299.22;4477914;31;34282;-80
2022/08/23 01:19:27;;;;;;;25.70;14.32;;;;;;;17.10;100.00;99295.41;4491681;31;34940;-80
2022/08/23 01:22:27;;;;;;;28.70;14.20;;;;;;;17.14;100.00;99292.75;4481273;31;35284;-81
2022/08/23 01:25:16;;;;;;;27.40;15.57;;;;;;;17.61;100.00;99300.00;4492248;31;34705;-81
2022/08/23 01:28:03;;;;;;;23.40;14.52;;;;;;;17.38;100.00;99305.50;4480918;31;34122;-81
2022/08/23 01:30:50;;;;;;;29.23;14.30;;;;;;;17.58;100.00;99300.75;4491398;31;37498;-80
2022/08/23 01:33:38;;;;;;;28.80;15.65;;;;;;;17.58;100.00;99309.06;4491889;31;35906;-80
2022/08/23 01:36:25;;;;;;;23.25;14.00;;;;;;;17.37;100.00;99312.22;4503673;31;35462;-81
2022/08/23 01:39:11;;;;;;;27.45;14.40;;;;;;;17.94;100.00;99313.34;4491979;31;35077;-80
2022/08/23 01:41:58;;;;;;;29.52;14.93;;;;;;;18.33;100.00;99307.69;4491747;31;34868;-80
2022/08/23 01:44:44;;;;;;;28.62;16.50;;;;;;;17.49;100.00;99312.84;4503755;31;35285;-81
2022/08/23 01:47:30;;;;;;;31.27;16.80;;;;;;;17.29;100.00;99316.78;4503325;31;35030;-81
2022/08/23 01:50:17;;;;;;;32.08;16.58;;;;;;;16.86;100.00;99311.12;4490810;31;34331;-80
2022/08/23 01:53:04;;;;;;;31.08;15.95;;;;;;;17.07;100.00;99310.78;4503415;31;34899;-81
2022/08/23 01:55:51;;;;;;;33.70;16.37;;;;;;;18.20;100.00;99320.91;4491351;31;35213;-81
2022/08/23 01:58:38;;;;;;;29.85;16.30;;;;;;;17.28;100.00;99315.19;4491569;31;34816;-80
2022/08/23 02:01:24;;;;;;;30.10;15.75;;;;;;;17.54;100.00;99320.88;4491609;31;34343;-81
2022/08/23 02:04:12;;;;;;;27.42;16.27;;;;;;;18.32;100.00;99322.69;4491946;31;34735;-81
2022/08/23 02:06:59;;;;;;;32.83;15.38;;;;;;;18.42;100.00;99322.09;4491586;31;35158;-81
2022/08/23 02:09:47;;;;;;;27.65;15.35;;;;;;;18.29;100.00;99318.69;4491579;31;34592;-81
2022/08/23 02:12:34;;;;;;;29.17;15.13;;;;;;;18.36;100.00;99324.38;4480859;31;34167;-81
2022/08/23 02:15:21;;;;;;;33.35;15.48;;;;;;;18.41;100.00;99326.84;4491982;31;34654;-81
2022/08/23 02:18:07;;;;;;;26.65;14.63;;;;;;;17.85;100.00;99330.19;4503405;31;35038;-81
2022/08/23 02:20:54;;;;;;;28.98;15.23;;;;;;;18.24;100.00;99327.31;4491338;31;35490;-81
2022/08/23 02:23:41;;;;;;;30.98;16.10;;;;;;;18.28;100.00;99325.41;4503373;31;34261;-81
2022/08/23 02:26:28;;;;;;;28.83;15.95;;;;;;;18.26;100.00;99330.53;4503612;31;34901;-81
2022/08/23 02:29:19;;;;;;;32.47;15.35;;;;;;;17.91;100.00;99337.03;4502953;31;35159;-81
2022/08/23 02:32:08;;;;;;;33.75;16.60;;;;;;;18.41;100.00;99332.38;4480414;31;34819;-80
2022/08/23 02:34:54;;;;;;;31.83;16.40;;;;;;;17.63;100.00;99342.00;4490942;31;34353;-81
2022/08/23 02:37:51;;;;;;;32.80;15.85;;;;;;;18.01;100.00;99346.72;4502973;31;34849;-81
2022/08/23 02:40:39;;;;;;;31.33;15.07;;;;;;;18.38;100.00;99343.41;4502831;31;35001;-81
2022/08/23 02:43:26;;;;;;;28.33;15.80;;;;;;;18.35;100.00;99344.16;4503395;31;34536;-81
2022/08/23 02:46:12;;;;;;;26.30;14.98;;;;;;;18.93;100.00;99337.56;4502883;31;34232;-81
2022/08/23 02:49:00;;;;;;;29.08;15.98;;;;;;;18.87;100.00;99349.00;4480516;31;35632;-81
2022/08/23 02:51:46;;;;;;;29.83;16.17;;;;;;;18.36;100.00;99357.66;4502813;31;35038;-81
2022/08/23 02:54:35;;;;;;;29.87;14.93;;;;;;;17.98;100.00;99353.00;4502880;31;35463;-81
2022/08/23 02:57:21;;;;;;;34.15;17.70;;;;;;;17.78;100.00;99355.00;4490799;31;34556;-81
2022/08/23 03:00:10;;;;;;;31.70;16.02;;;;;;;17.83;100.00;99356.69;4490754;31;34741;-81
2022/08/23 03:02:56;;;;;;;31.50;15.32;;;;;;;18.27;100.00;99357.09;4481500;31;36025;-80
2022/08/23 03:05:43;;;;;;;31.17;15.98;;;;;;;18.72;100.00;99357.44;4492763;31;34655;-81
2022/08/23 03:08:29;;;;;;;28.87;14.82;;;;;;;18.03;100.00;99372.09;4492814;31;34377;-81
2022/08/23 03:11:19;;;;;;;25.52;15.45;;;;;;;18.47;100.00;99357.00;4492567;31;34882;-80
2022/08/23 03:14:08;;;;;;;23.83;14.68;;;;;;;18.52;100.00;99356.72;4493894;31;35149;-81
2022/08/23 03:16:55;;;;;;;25.67;14.57;;;;;;;18.64;100.00;99367.59;4493469;31;34684;-81
2022/08/23 03:19:43;;;;;;;26.73;14.13;;;;;;;18.44;100.00;99364.09;4493628;31;34362;-81
2022/08/23 03:22:29;;;;;;;26.40;13.48;;;;;;;17.98;100.00;99370.41;4505067;31;34930;-81
2022/08/23 03:25:16;;;;;;;25.70;14.65;;;;;;;18.23;100.00;99370.09;4504994;31;35979;-81
2022/08/23 03:28:05;;;;;;;26.27;14.45;;;;;;;17.71;100.00;99379.78;4493215;31;34522;-81
2022/08/23 03:30:52;;;;;;;23.75;14.82;;;;;;;18.62;100.00;99378.28;4492722;31;34240;-81
2022/08/23 03:33:39;;;;;;;25.23;14.40;;;;;;;18.09;100.00;99383.69;4492901;31;34977;-81
2022/08/23 03:36:25;;;;;;;23.12;13.27;;;;;;;18.22;100.00;99389.88;4481557;31;35014;-81
2022/08/23 03:39:14;;;;;;;22.92;13.27;;;;;;;18.61;100.00;99387.78;4493040;31;34557;-81
2022/08/23 03:42:00;;;;;;;23.75;14.45;;;;;;;18.01;100.00;99387.50;4504474;31;34452;-81
2022/08/23 03:44:46;;;;;;;26.65;14.13;;;;;;;17.72;100.00;99382.16;4492262;31;35090;-81
2022/08/23 03:47:33;;;;;;;28.35;14.48;;;;;;;18.18;100.00;99389.78;4492135;31;35037;-81
2022/08/23 03:50:20;;;;;;;23.45;13.70;;;;;;;18.08;100.00;99395.97;4504630;31;34888;-81
2022/08/23 03:53:06;;;;;;;24.65;13.57;;;;;;;18.69;100.00;99402.56;4504370;31;34341;-80
2022/08/23 03:55:55;;;;;;;23.15;14.80;;;;;;;18.64;100.00;99398.13;4491768;31;34663;-79
2022/08/23 03:58:41;;;;;;;23.10;14.00;;;;;;;18.87;100.00;99393.41;4490830;31;35130;-79
2022/08/23 04:01:28;;;;;;;26.35;15.32;;;;;;;19.28;100.00;99401.94;4476643;32;35359;-79
2022/08/23 04:04:16;;;;;;;25.80;14.18;;;;;;;18.33;100.00;99402.78;4498267;31;34271;-79
2022/08/23 04:07:03;;;;;;;29.95;15.20;;;;;;;18.52;100.00;99404.66;4482543;32;34646;-79
2022/08/23 04:09:50;;;;;;;28.83;15.45;;;;;;;18.55;100.00;99409.47;4474669;32;34927;-79
2022/08/23 04:12:41;;;;;;;29.25;15.73;;;;;;;19.12;100.00;99409.62;4486299;32;35446;-79
2022/08/23 04:15:29;;;;;;;27.35;15.63;;;;;;;18.80;100.00;99414.69;4474939;32;34228;-79
2022/08/23 04:18:16;;;;;;;33.95;17.17;;;;;;;18.31;100.00;99420.94;4463923;32;34568;-79
2022/08/23 04:21:09;;;;;;;34.10;18.12;;;;;;;18.28;100.00;99416.94;4486607;32;35945;-79
2022/08/23 04:23:55;;;;;;;32.67;17.02;;;;;;;17.40;100.00;99411.97;4485397;31;35365;-79
2022/08/23 04:26:42;;;;;;;32.83;18.17;;;;;;;17.73;100.00;99408.72;4481234;31;34241;-79
2022/08/23 04:29:33;;;;;;;38.17;19.02;;;;;;;17.29;100.00;99410.94;4474976;32;34591;-79
2022/08/23 04:32:20;;;;;;;33.65;17.37;;;;;;;17.65;100.00;99418.06;4486631;31;35049;-79
2022/08/23 04:35:14;;;;;;;35.92;17.37;;;;;;;17.60;100.00;99412.00;4486167;31;34601;-75
2022/08/23 04:38:01;;;;;;;35.97;17.90;;;;;;;18.04;100.00;99412.50;4477977;31;34221;-77
2022/08/23 04:44:08;;;;;;;36.30;18.42;;;;;;;18.02;100.00;99409.31;4494463;31;35914;-77
2022/08/23 04:46:54;;;;;;;32.47;16.83;;;;;;;17.96;100.00;99411.59;4496031;31;34518;-77
2022/08/23 04:49:40;;;;;;;33.53;17.58;;;;;;;18.22;100.00;99423.97;4489938;31;34223;-78
2022/08/23 04:52:27;;;;;;;30.73;16.42;;;;;;;18.41;100.00;99423.94;4502251;31;35604;-78
2022/08/23 04:55:13;;;;;;;31.37;16.00;;;;;;;18.19;100.00;99427.47;4490330;31;35005;-77
2022/08/23 04:58:00;;;;;;;36.13;16.87;;;;;;;18.01;100.00;99423.53;4479018;31;34499;-76
2022/08/23 05:00:49;;;;;;;31.40;15.98;;;;;;;18.43;100.00;99427.09;4502229;31;34278;-77
2022/08/23 05:03:41;;;;;;;30.50;15.80;;;;;;;18.32;100.00;99439.97;4490797;31;35578;-75
2022/08/23 05:06:28;;;;;;;30.88;16.48;;;;;;;18.57;100.00;99429.34;4501891;31;35069;-77
2022/08/23 05:09:15;;;;;;;25.50;14.77;;;;;;;18.64;100.00;99442.53;4474832;32;35330;-78
2022/08/23 05:12:06;;;;;;;28.98;14.73;;;;;;;18.85;100.00;99440.16;4488120;31;34187;-78
2022/08/23 05:14:52;;;;;;;24.15;14.00;;;;;;;19.23;100.00;99445.91;4501960;31;34776;-78
2022/08/23 05:17:39;;;;;;;26.15;13.85;;;;;;;19.40;100.00;99448.12;4502139;31;35945;-78
2022/08/23 05:20:25;;;;;;;22.80;14.23;;;;;;;19.22;100.00;99444.31;4490083;31;34567;-78
2022/08/23 05:23:11;;;;;;;23.08;13.00;;;;;;;18.82;100.00;99449.22;4489898;31;34151;-79
2022/08/23 05:25:58;;;;;;;24.33;12.90;;;;;;;18.64;100.00;99445.31;4483688;31;34610;-77
2022/08/23 05:28:47;;;;;;;18.75;12.55;;;;;;;19.14;100.00;99457.28;4488745;31;35938;-77
2022/08/23 05:31:33;;;;;;;22.87;13.40;;;;;;;18.35;100.00;99449.53;4478567;31;34993;-77
2022/08/23 05:34:20;;;;;;;23.45;14.02;;;;;;;18.31;100.00;99451.47;4491760;31;34260;-78
2022/08/23 05:37:08;;;;;;;24.45;13.48;;;;;;;18.79;100.00;99452.75;4489321;31;34011;-77
2022/08/23 05:40:19;;;;;;;24.75;13.68;;;;;;;18.88;100.00;99452.50;4487457;31;35906;-77
2022/08/23 05:43:05;;;;;;;22.90;12.00;;;;;;;18.24;100.00;99454.06;4482343;31;35100;-78
2022/08/23 05:45:59;;;;;;;21.33;13.38;;;;;;;19.03;100.00;99464.62;4468679;31;35111;-78
2022/08/23 05:48:49;;;;;;;23.98;13.05;;;;;;;19.47;100.00;99470.47;4479770;31;33694;-78
2022/08/23 05:51:36;;;;;;;25.12;15.25;;;;;;;18.21;100.00;99466.69;4470305;31;34669;-78
2022/08/23 05:54:22;;;;;;;25.30;14.82;;;;;;;18.10;100.00;99474.84;4489743;31;34632;-78
2022/08/23 05:57:10;;;;;;;25.98;13.85;;;;;;;18.13;100.00;99476.03;4477737;31;34112;-78
2022/08/23 05:59:56;;;;;;;31.95;16.92;;;;;;;18.92;100.00;99491.41;4488368;31;34448;-78
2022/08/23 06:02:43;;;;;;;29.08;15.23;;;;;;;18.12;100.00;99488.31;4485919;31;36140;-78
2022/08/23 06:05:29;;;;;;;30.73;17.10;;;;;;;17.92;100.00;99496.63;4489585;31;34484;-78
2022/08/23 06:08:16;;;;;;;26.95;15.30;;;;;;;18.74;100.00;99500.22;4480863;31;33813;-78
2022/08/23 06:11:06;;;;;;;30.73;14.50;;;;;;;19.35;100.00;99500.44;4479286;31;34606;-78
2022/08/23 06:13:56;;;;;;;29.63;14.75;;;;;;;19.28;100.00;99499.16;4468100;31;34957;-78
2022/08/23 06:16:46;;;;;;;27.90;14.75;;;;;;;19.45;100.00;99505.37;4476380;31;35597;-78
2022/08/23 06:19:32;;;;;;;27.33;14.80;;;;;;;19.20;100.00;99500.22;4476712;31;34719;-78
2022/08/23 06:22:20;;;;;;;25.17;13.45;;;;;;;19.09;100.00;99516.69;4479402;31;35619;-78
2022/08/23 06:25:06;;;;;;;24.10;13.62;;;;;;;19.61;100.00;99506.00;4480471;31;34608;-78
2022/08/23 06:27:55;;;;;;;29.80;14.90;;;;;;;19.86;100.00;99513.91;4478426;31;34433;-78
2022/08/23 06:30:41;;;;;;;26.42;13.62;;;;;;;19.52;100.00;99517.41;4491304;31;34829;-78
2022/08/23 06:33:29;;;;;;;22.65;13.10;;;;;;;19.68;100.00;99517.25;4481251;31;35594;-78
2022/08/23 06:36:17;;;;;;;25.85;12.98;;;;;;;19.68;100.00;99513.66;4472597;31;34500;-77
2022/08/23 06:39:06;;;;;;;26.62;14.07;;;;;;;20.20;100.00;99518.31;4477733;31;35383;-78
2022/08/23 06:41:52;;;;;;;27.08;14.48;;;;;;;18.70;100.00;99524.31;4475347;31;34914;-78
2022/08/23 06:44:40;;;;;;;28.65;14.68;;;;;;;18.53;100.00;99522.03;4476313;31;35630;-78
2022/08/23 06:47:28;;;;;;;26.62;15.10;;;;;;;18.74;100.00;99530.75;4477725;31;35929;-78
2022/08/23 06:50:18;;;;;;;25.77;14.07;;;;;;;18.80;100.00;99525.72;4479138;31;34516;-78
2022/08/23 06:53:06;;;;;;;27.33;14.63;;;;;;;19.50;100.00;99530.06;4479053;31;34097;-78
2022/08/23 06:55:55;;;;;;;25.95;14.02;;;;;;;19.41;100.00;99529.50;4475935;31;34725;-78
2022/08/23 06:58:42;;;;;;;24.65;14.38;;;;;;;20.13;100.00;99540.50;4477685;31;34916;-78
2022/08/23 07:01:59;;;;;;;26.52;14.30;;;;;;;19.49;100.00;99545.09;4478539;31;35484;-78
2022/08/23 07:04:52;;;;;;;25.55;14.40;;;;;;;20.32;100.00;99535.94;4473960;31;33856;-78
2022/08/23 07:07:39;;;;;;;22.40;13.95;;;;;;;20.60;100.00;99536.31;4486544;31;34667;-78
2022/08/23 07:10:30;;;;;;;21.93;13.53;;;;;;;19.57;100.00;99540.47;4491273;31;34667;-78
2022/08/23 07:13:16;;;;;;;25.73;14.10;;;;;;;19.73;100.00;99539.16;4491159;31;34113;-78
2022/08/23 07:16:04;;;;;;;25.95;14.77;;;;;;;20.05;100.00;99541.59;4489506;31;34219;-78
2022/08/23 07:18:51;;;;;;;24.40;13.18;;;;;;;20.75;100.00;99547.59;4455560;31;34698;-78
2022/08/23 07:21:38;;;;;;;21.52;14.10;;;;;;;20.52;100.00;99551.31;4477885;31;34605;-78
2022/08/23 07:24:25;;;;;;;24.15;13.68;;;;;;;20.60;100.00;99553.00;4490695;31;34546;-78
2022/08/23 07:27:17;;;;;;;22.58;14.20;;;;;;;20.81;100.00;99546.09;4476856;31;35203;-78
2022/08/23 07:30:05;;;;;;;24.67;14.68;;;;;;;20.28;100.00;99558.16;4484065;31;34642;-78
2022/08/23 07:32:52;;;;;;;26.15;14.10;;;;;;;20.38;100.00;99549.16;4483339;31;34070;-78
2022/08/23 07:35:48;;;;;;;20.98;13.32;;;;;;;20.95;100.00;99543.44;4459877;31;34070;-78
2022/08/23 07:38:35;;;;;;;23.77;14.25;;;;;;;20.70;100.00;99545.97;4468117;31;35014;-78
2022/08/23 07:41:28;;;;;;;28.15;14.75;;;;;;;19.50;100.00;99550.31;4480362;31;35538;-78
2022/08/23 07:44:17;;;;;;;24.60;15.20;;;;;;;20.12;100.00;99550.03;4470613;31;34491;-78
2022/08/23 07:47:11;;;;;;;21.65;13.70;;;;;;;20.65;100.00;99561.03;4478050;31;34128;-78
2022/08/23 07:49:58;;;;;;;19.33;12.75;;;;;;;20.23;100.00;99555.72;4474150;31;34070;-78
2022/08/23 07:52:44;;;;;;;22.35;13.93;;;;;;;20.91;100.00;99561.28;4477470;31;35562;-78
2022/08/23 07:55:33;;;;;;;19.42;12.37;;;;;;;21.03;100.00;99556.25;4468158;31;35555;-78
2022/08/23 07:58:21;;;;;;;20.05;12.02;;;;;;;21.23;100.00;99564.38;4481788;31;34522;-78
2022/08/23 08:01:14;;;;;;;18.60;12.10;;;;;;;21.38;100.00;99568.94;4481071;31;33939;-78
2022/08/23 08:04:04;;;;;;;16.87;11.07;;;;;;;21.56;100.00;99564.28;4479599;31;35599;-78
2022/08/23 08:06:51;;;;;;;17.02;11.50;;;;;;;21.95;100.00;99563.75;4469096;31;33600;-78
2022/08/23 08:09:58;;;;;;;18.92;12.05;;;;;;;21.48;100.00;99564.59;4482761;31;35445;-78
2022/08/23 08:12:45;;;;;;;18.60;12.43;;;;;;;21.24;100.00;99560.41;4487369;31;34211;-78
2022/08/23 08:15:33;;;;;;;16.62;10.98;;;;;;;21.76;100.00;99558.44;4482567;31;35229;-78
2022/08/23 08:18:20;;;;;;;17.85;11.40;;;;;;;21.93;100.00;99557.75;4486692;31;35778;-78
2022/08/23 08:21:14;;;;;;;;;;;;;;;21.47;100.00;99555.44;4480622;31;36016;-78
2022/08/23 08:24:03;;;;;;;17.98;11.57;;;;;;;21.66;100.00;99564.72;4467748;31;33961;-78
2022/08/23 08:26:54;;;;;;;15.77;9.65;;;;;;;21.47;100.00;99563.03;4479856;31;34791;-78
2022/08/23 08:29:42;;;;;;;15.48;10.40;;;;;;;21.67;100.00;99566.34;4478840;31;34816;-78
2022/08/23 08:32:29;;;;;;;16.95;11.00;;;;;;;22.07;100.00;99576.56;4478781;31;35353;-78
2022/08/23 08:35:16;;;;;;;14.60;9.38;;;;;;;22.24;100.00;99569.50;4477937;31;33906;-78
2022/08/23 08:38:03;;;;;;;11.43;8.18;;;;;;;22.50;100.00;99568.41;4469559;31;34655;-78
2022/08/23 08:41:05;;;;;;;12.63;8.10;;;;;;;22.01;100.00;99576.13;4490820;31;33942;-78
2022/08/23 08:44:07;;;;;;;11.15;7.37;;;;;;;23.37;97.01;99577.78;4471335;31;34571;-78
2022/08/23 08:46:58;;;;;;;13.30;7.62;;;;;;;23.73;96.24;99584.97;4477810;31;34062;-78
2022/08/23 08:49:55;;;;;;;8.93;6.35;;;;;;;24.29;93.45;99585.25;4477096;31;35619;-79
2022/08/23 08:52:45;;;;;;;10.02;7.35;;;;;;;24.32;87.31;99592.06;4480971;31;34890;-78
2022/08/23 08:55:37;;;;;;;12.77;6.97;;;;;;;24.91;84.29;99589.41;4481344;31;34532;-78
2022/08/23 08:58:35;;;;;;;9.95;7.40;;;;;;;24.89;86.12;99580.59;4465770;31;34093;-78
2022/08/23 09:01:24;;;;;;;10.73;7.07;;;;;;;24.36;83.28;99585.25;4471556;31;34451;-79
2022/08/23 09:04:11;;;;;;;12.73;7.65;;;;;;;24.77;85.95;99583.88;4468203;31;34892;-78
2022/08/23 09:07:10;;;;;;;10.35;7.85;;;;;;;25.58;81.29;99579.72;4476046;31;34799;-79
2022/08/23 09:10:12;;;;;;;10.30;6.80;;;;;;;26.03;77.57;99585.31;4479199;31;34110;-79
2022/08/23 09:13:23;;;;;;;10.85;6.55;;;;;;;26.32;77.23;99587.00;4481486;31;35478;-78
2022/08/23 09:16:31;;;;;;;11.18;6.93;;;;;;;25.84;80.36;99580.28;4478275;31;34982;-78
2022/08/23 09:19:19;;;;;;;11.20;7.25;;;;;;;26.64;74.69;99586.62;4489052;31;34540;-78
2022/08/23 09:22:12;;;;;;;10.68;7.22;;;;;;;26.82;72.04;99586.41;4465418;31;34959;-78
2022/08/23 09:24:59;;;;;;;10.60;7.03;;;;;;;26.74;73.12;99588.50;4472729;31;34676;-78
2022/08/23 09:27:45;;;;;;;10.75;7.32;;;;;;;27.20;70.40;99592.69;4488651;31;35965;-78
2022/08/23 09:30:51;;;;;;;11.25;8.30;;;;;;;26.96;73.22;99583.41;4466537;31;35357;-78
2022/08/23 09:33:42;;;;;;;13.35;8.75;;;;;;;27.04;70.50;99587.69;4467111;31;34694;-78
2022/08/23 09:36:32;;;;;;;12.52;8.43;;;;;;;26.79;72.85;99584.44;4477776;31;34746;-78
2022/08/23 09:39:30;;;;;;;11.77;8.03;;;;;;;26.74;72.21;99582.91;4467288;31;34912;-78
2022/08/23 09:42:37;;;;;;;10.80;7.97;;;;;;;26.64;73.62;99589.44;4461621;31;35083;-78
2022/08/23 09:45:30;;;;;;;10.75;8.20;;;;;;;26.90;70.19;99597.13;4480487;31;35100;-78
2022/08/23 09:48:39;;;;;;;10.32;7.15;;;;;;;25.50;74.30;99591.41;4470353;31;34566;-79
2022/08/23 09:51:38;;;;;;;13.55;8.25;;;;;;;26.08;73.65;99595.31;4477121;31;35101;-79
2022/08/23 09:54:32;;;;;;;10.32;6.72;;;;;;;26.07;73.26;99599.34;4478639;31;34433;-78
2022/08/23 09:57:24;;;;;;;10.02;7.45;;;;;;;26.02;74.33;99594.97;4467018;31;34036;-78
2022/08/23 10:00:33;;;;;;;13.00;7.28;;;;;;;25.57;75.06;99594.97;4477619;31;34638;-78
2022/08/23 10:03:24;;;;;;;10.15;6.30;;;;;;;26.03;76.02;99590.94;4467661;31;36009;-79
2022/08/23 10:06:16;;;;;;;11.02;8.77;;;;;;;26.74;74.50;99582.91;4480905;31;34129;-78
2022/08/23 10:09:05;;;;;;;9.88;6.72;;;;;;;26.76;67.82;99588.09;4470574;31;34266;-78
2022/08/23 10:11:51;;;;;;;11.30;8.38;;;;;;;25.60;76.07;99589.72;4467240;31;35547;-78
2022/08/23 10:14:38;;;;;;;10.88;8.23;;;;;;;26.03;70.56;99585.31;4467172;31;35609;-78
2022/08/23 10:18:01;;;;;;;10.45;6.95;;;;;;;24.59;76.64;99583.97;4459377;31;34566;-78
2022/08/23 10:21:05;;;;;;;11.10;7.03;;;;;;;25.85;74.19;99587.53;4469395;31;35215;-78
2022/08/23 10:24:06;;;;;;;10.23;6.87;;;;;;;25.56;72.95;99584.97;4460522;31;34183;-78
2022/08/23 10:29:35;;;;;;;11.43;7.62;;;;;;;24.44;84.88;99597.22;4484027;31;35948;-78
2022/08/23 10:30:20;;;;;;;9.95;6.95;;;;;;;24.42;84.68;99596.84;4470980;31;150511;-78
2022/08/23 10:33:17;;;;;;;8.68;6.55;;;;;;;24.26;86.20;99604.87;4479019;31;35325;-78
2022/08/23 10:36:28;;;;;;;12.90;7.40;;;;;;;24.41;83.16;99593.22;4453903;31;34586;-78
2022/08/23 10:39:21;;;;;;;10.20;7.62;;;;;;;25.18;78.51;99592.44;4468831;31;35544;-77
2022/08/23 10:42:32;;;;;;;11.60;7.07;;;;;;;23.61;85.90;99592.97;4461533;31;35427;-78
2022/08/23 10:45:28;;;;;;;10.52;7.15;;;;;;;24.73;83.46;99594.31;4490556;31;34345;-78
2022/08/23 10:48:26;;;;;;;12.05;7.57;;;;;;;24.59;81.88;99595.97;4458685;31;34561;-79
2022/08/23 10:51:20;;;;;;;10.63;7.75;;;;;;;25.13;79.41;99590.06;4471264;31;34967;-78
2022/08/23 10:54:33;;;;;;;13.05;7.55;;;;;;;24.56;79.96;99593.19;4471252;31;35397;-78
2022/08/23 10:57:20;;;;;;;10.43;7.25;;;;;;;24.99;79.89;99593.78;4471706;31;35230;-78
2022/08/23 11:00:11;;;;;;;9.48;7.45;;;;;;;24.00;83.49;99601.34;4481148;31;34650;-78
2022/08/23 11:03:00;;;;;;;;;;;;;;;24.34;82.37;99593.25;4468101;31;34714;-79
2022/08/23 11:06:23;;;;;;;11.98;8.00;;;;;;;24.74;80.85;99598.72;4470148;31;35601;-78
2022/08/23 11:09:16;;;;;;;11.60;7.37;;;;;;;24.91;77.81;99600.62;4480057;31;34064;-78
2022/08/23 11:12:20;;;;;;;9.35;6.97;;;;;;;24.71;79.99;99593.94;4477173;31;35512;-78
2022/08/23 11:15:06;;;;;;;8.88;6.37;;;;;;;24.64;79.54;99592.72;4459863;31;35947;-76
2022/08/23 11:17:57;;;;;;;12.02;7.35;;;;;;;25.39;77.09;99585.09;4470418;31;35383;-78
2022/08/23 11:20:47;;;;;;;12.95;7.00;;;;;;;24.67;80.87;99597.53;4467907;31;34163;-78
2022/08/23 11:23:38;;;;;;;12.73;7.15;;;;;;;25.24;76.82;99590.00;4492876;31;35435;-78
2022/08/23 11:26:24;;;;;;;9.70;6.35;;;;;;;25.16;77.01;99594.88;4467623;31;35018;-78
2022/08/23 11:29:23;;;;;;;9.57;7.32;;;;;;;26.09;76.01;99590.47;4485906;31;34314;-78
2022/08/23 11:32:22;;;;;;;11.02;7.32;;;;;;;24.94;79.52;99594.19;4471755;31;35083;-79
2022/08/23 11:35:41;;;;;;;11.20;7.80;;;;;;;24.96;79.75;99586.19;4481143;31;35236;-78
2022/08/23 11:38:42;;;;;;;12.48;7.45;;;;;;;25.38;75.59;99587.09;4481483;31;36013;-79
2022/08/23 11:41:31;;;;;;;10.60;7.90;;;;;;;24.53;78.58;99589.19;4482822;31;34485;-79
2022/08/23 11:44:24;;;;;;;10.52;7.97;;;;;;;24.23;84.50;99584.88;4469159;31;34256;-77
2022/08/23 11:47:10;;;;;;;13.30;7.68;;;;;;;24.00;84.03;99587.34;4464699;31;34636;-77
2022/08/23 11:50:24;;;;;;;11.90;7.37;;;;;;;23.64;86.49;99589.37;4474040;31;35966;-79
2022/08/23 11:53:37;;;;;;;11.15;8.32;;;;;;;24.09;85.48;99596.13;4467745;31;34637;-79
2022/08/23 11:56:50;;;;;;;11.82;7.65;;;;;;;24.63;83.75;99595.97;4491123;31;34132;-78
2022/08/23 11:59:52;;;;;;;11.25;7.90;;;;;;;24.80;83.61;99595.06;4482202;31;34314;-78
2022/08/23 12:03:00;;;;;;;9.73;7.18;;;;;;;23.96;87.05;99597.75;4468524;31;35042;-78
2022/08/23 12:05:50;;;;;;;10.45;7.60;;;;;;;24.34;83.96;99595.25;4479555;31;34618;-78
2022/08/23 12:09:00;;;;;;;11.82;7.30;;;;;;;24.56;81.38;99591.19;4489624;31;34183;-78
2022/08/23 12:11:56;;;;;;;13.07;8.20;;;;;;;24.66;82.11;99590.34;4485204;31;35560;-78
2022/08/23 12:14:42;;;;;;;11.15;7.10;;;;;;;24.80;81.49;99599.88;4481131;31;35993;-77
2022/08/23 12:17:29;;;;;;;10.93;8.00;;;;;;;25.52;80.54;99591.78;4484964;31;34236;-77
2022/08/23 12:20:28;;;;;;;10.40;6.82;;;;;;;26.11;77.05;99591.66;4490529;31;34257;-79
2022/08/23 12:23:17;;;;;;;11.32;7.43;;;;;;;25.96;79.43;99591.03;4479354;31;35481;-78
2022/08/23 12:26:09;;;;;;;9.80;7.80;;;;;;;26.00;76.41;99588.16;4471417;31;36007;-78
2022/08/23 12:29:03;;;;;;;13.88;8.60;;;;;;;26.32;73.31;99596.22;4470959;31;35140;-78
2022/08/23 12:32:14;;;;;;;8.68;7.50;;;;;;;26.28;71.75;99592.69;4482396;31;35140;-79
2022/08/23 12:35:39;;;;;;;10.95;7.47;;;;;;;26.11;75.06;99588.06;4492583;31;35601;-78
2022/08/23 12:38:53;;;;;;;11.82;7.07;;;;;;;27.35;66.88;99585.62;4473239;31;34967;-78
2022/08/23 12:41:52;;;;;;;10.02;7.22;;;;;;;26.38;71.77;99588.13;4482800;31;35560;-78
2022/08/23 12:44:38;;;;;;;9.95;7.60;;;;;;;26.24;73.69;99589.09;4472834;31;34120;-78
2022/08/23 12:47:25;;;;;;;9.23;6.87;;;;;;;25.92;73.36;99589.44;4485218;31;34601;-78
2022/08/23 12:50:14;;;;;;;10.50;7.10;;;;;;;26.41;71.90;99588.13;4470086;31;35055;-78
2022/08/23 12:53:11;;;;;;;9.50;7.28;;;;;;;25.68;76.37;99592.06;4493167;31;34587;-78
2022/08/23 12:56:08;;;;;;;10.30;7.05;;;;;;;24.56;83.70;99605.19;4467928;31;34034;-78
2022/08/23 12:59:02;;;;;;;14.50;9.90;;;;;;;24.67;83.98;99607.94;4477256;31;35573;-77
2022/08/23 13:01:48;;;;;;;12.50;8.48;;;;;;;24.35;86.10;99605.25;4480665;31;35946;-77
2022/08/23 13:04:37;;;;;;;12.95;8.82;;;;;;;24.11;88.27;99604.13;4466735;31;35354;-77
2022/08/23 13:07:25;;;;;;;13.38;9.52;;;;;;;23.55;92.31;99607.34;4474481;31;35092;-77
2022/08/23 13:10:12;;;;;;;13.23;8.88;;;;;;;23.24;96.95;99596.94;4479543;31;34682;-77
2022/08/23 13:12:58;;;;;;;12.48;8.32;;;;;;;23.82;92.89;99603.34;4491460;31;34696;-78
2022/08/23 13:15:53;;;;;;;12.25;8.07;;;;;;;23.56;94.83;99602.53;4469711;32;34540;-77
2022/08/23 13:18:44;;;;;;;10.77;7.47;;;;;;;23.77;94.96;99608.16;4485330;32;34231;-76